Granite Canon, Wyoming
Current Conditions -  °F | °C
As of 4:56 AM on Sunday 23 Nov 2014 (Local Time) from KFEW Reporting Station
Broken Clouds Broken Clouds  
Wind Chill: 21°   Ceiling: 19000
Heat Index: 29°   Visibility: 10mi
Dew Point: 20°   Wind: 9mph
Humidity: 69%   Direction: 350°N
Pressure: 29.66"   Gusts: 20mph
Location:  41.1°N, 105.14°W
Report Text: KFEW 231156Z AUTO 35008G17KT 10SM BKN190 M01/M06 A2966 RMK AO2 SLP047 T10141065 10041 21025 50019 $
Loading
Personal Weather Stations






























Interactive Weather Map New forecast layout! Learn more

10-Day Weather Forecast

Advertisements
Track Severe Weather on mobile